Airfield :
LOGIN :

Register | Disclaimer

   EN    FR    IT 

 










Legend :    VFR   Marginal VFR   IFR   Intensive IFR   Very Intensive IFR
Visi :
Ceiling :
>= 8 km
>= 3000ft
5 to 8 km
1000 to 3000 ft
1500m to 5 km
500 to 1000 ft
800 to 1500m
200 to 500 ft
< 800m
< 200 ft
Symbols :   Thunderstorms  Fog  Heavy snow  Heavy precipitations  Wind > 20 kt
SIGMETs :     Misc.  Thunderstorms  Icing  Turbulence  Mountain Waves  Volcanic Ashes







- Airport Elevation : 1036 ft
- IATA code : ERF


EDDE - Erfurt

CURRENT METAR :
  • 241020Z 23016KT 200V260 9999 FEW033 BKN140 BKN300 17/07 Q1016 TEMPO 24015G25KT

EXPIRED METARs :
  • 240950Z 24013KT 210V270 9999 FEW033 BKN130 BKN300 16/07 Q1016 TEMPO 24015G25KT
  • 240920Z 25012KT 9999 FEW033 SCT140 BKN300 16/06 Q1016 TEMPO 24015G25KT
  • 240850Z 24014KT 9999 FEW036 BKN300 15/06 Q1016 TEMPO 24015G25KT
  • 240820Z 24014KT 9999 FEW036 BKN300 14/07 Q1016 TEMPO 24015G25KT
  • 240750Z 24012KT 9999 FEW036 BKN300 14/07 Q1016 TEMPO 24015G25KT

TAF TAF EDDE
Valid from the 24 at 06:00 until the 25 at 06:00 UTC


240500Z 2406/2506 20006KT CAVOK
BECMG 2407/2409 25012KT
TEMPO 2408/2415 25015G25KT
BECMG 2415/2417 25006KT
No reported NOTAMs for that airfield.



MET'MAP, your aeronautical weather chart ! - Copyright ORBIFLY December 2007 - Disclaimer

ORBIFLY MET'MAP TEAM :

Programming & Development : Alexandra Zaïnal
Concept & Development : Baudouin d'Aumeries
Co-Development & Prog : Marc-Olivier Méhu
Technical & hardware support : Manuel Goepfert

Contact : metmap@orbifly.com




SOURCES & CREDITS :

   NOAA